| time (UTC) | temp F | wind direction | speed knots | gust knots | rain 1hr in | rain 24hr in | rain mn in | humidity % | barometer mb |
| 20260906120055 | 71 | 0 | 0.0 | 0.0 | 0.00 | 0.00 | 0.00 | 91 | 1013.1 |
| 20260906114549 | 71 | 0 | 0.0 | 0.0 | 0.00 | 0.00 | 0.00 | 92 | 1012.7 |
| 20260906113055 | 71 | 0 | 0.0 | 0.0 | 0.00 | 0.00 | 0.00 | 91 | 1012.7 |
| 20260906111608 | 71 | 0 | 0.0 | 0.0 | 0.00 | 0.00 | 0.00 | 91 | 1012.5 |
| 20260906110056 | 71 | 0 | 0.0 | 0.9 | 0.00 | 0.00 | 0.00 | 90 | 1012.3 |
| 20260906104552 | 72 | 0 | 0.0 | 0.0 | 0.00 | 0.00 | 0.00 | 90 | 1012.3 |
| 20260906103045 | 72 | 0 | 0.0 | 0.9 | 0.00 | 0.00 | 0.00 | 89 | 1012.2 |
| 20260906101556 | 72 | 0 | 0.0 | 0.9 | 0.00 | 0.00 | 0.00 | 88 | 1012.2 |
| 20260906100056 | 72 | 0 | 0.0 | 0.9 | 0.00 | 0.00 | 0.00 | 88 | 1012.2 |
| 20260906094548 | 72 | 0 | 0.0 | 0.0 | 0.00 | 0.00 | 0.00 | 87 | 1012.1 |
| 20260906093102 | 73 | 0 | 0.0 | 0.9 | 0.00 | 0.00 | 0.00 | 86 | 1012.1 |
| 20260906091554 | 73 | 65 | 0.0 | 0.9 | 0.00 | 0.00 | 0.00 | 85 | 1012.0 |
| 20260906090057 | 74 | 0 | 0.0 | 1.7 | 0.00 | 0.00 | 0.00 | 84 | 1012.1 |
| 20260906084548 | 74 | 0 | 0.0 | 1.7 | 0.00 | 0.00 | 0.00 | 83 | 1011.9 |
| 20260906083051 | 74 | 0 | 0.0 | 3.5 | 0.00 | 0.00 | 0.00 | 84 | 1011.8 |
| 20260906081556 | 74 | 0 | 0.0 | 2.6 | 0.00 | 0.00 | 0.00 | 83 | 1011.9 |
| 20260906080100 | 74 | 240 | 0.0 | 4.3 | 0.00 | 0.00 | 0.00 | 82 | 1011.7 |
| 20260906074554 | 74 | 240 | 0.9 | 3.5 | 0.00 | 0.00 | 0.00 | 82 | 1011.7 |
| 20260906073048 | 74 | 140 | 0.9 | 5.2 | 0.00 | 0.00 | 0.00 | 81 | 1011.9 |
| 20260906071600 | 75 | 252 | 0.9 | 4.3 | 0.00 | 0.00 | 0.00 | 80 | 1012.0 |
| 20260906070058 | 75 | 144 | 0.0 | 3.5 | 0.00 | 0.00 | 0.00 | 79 | 1012.1 |
| 20260906064554 | 76 | 240 | 0.9 | 2.6 | 0.00 | 0.00 | 0.00 | 78 | 1012.1 |
| 20260906063058 | 76 | 0 | 0.0 | 3.5 | 0.00 | 0.00 | 0.00 | 77 | 1012.1 |
| 20260906061600 | 77 | 296 | 0.9 | 4.3 | 0.00 | 0.00 | 0.00 | 75 | 1012.3 |
| 20260906060056 | 78 | 165 | 0.9 | 6.1 | 0.00 | 0.00 | 0.00 | 72 | 1012.7 |
| 20260906054602 | 78 | 221 | 0.9 | 5.2 | 0.00 | 0.00 | 0.00 | 74 | 1013.0 |
| 20260906053101 | 79 | 0 | 0.0 | 4.3 | 0.00 | 0.00 | 0.00 | 76 | 1013.0 |
| 20260906051609 | 79 | 51 | 0.9 | 3.5 | 0.00 | 0.00 | 0.00 | 75 | 1012.9 |
| 20260906050053 | 80 | 0 | 0.9 | 3.5 | 0.00 | 0.00 | 0.00 | 75 | 1012.9 |
| 20260906044554 | 81 | 61 | 0.9 | 7.0 | 0.00 | 0.00 | 0.00 | 73 | 1013.0 |
| 20260906043047 | 81 | 0 | 0.0 | 2.6 | 0.00 | 0.00 | 0.00 | 72 | 1012.2 |
| 20260906041557 | 81 | 0 | 0.0 | 3.5 | 0.00 | 0.00 | 0.00 | 73 | 1012.4 |
| 20260906040136 | 81 | 195 | 0.9 | 3.5 | 0.00 | 0.00 | 0.00 | 73 | 1012.3 |
| 20260906034601 | 82 | 86 | 0.0 | 1.7 | 0.00 | 0.00 | 0.00 | 70 | 1012.4 |
| 20260906033106 | 82 | 67 | 0.9 | 7.8 | 0.00 | 0.00 | 0.00 | 70 | 1012.4 |
| 20260906031554 | 82 | 355 | 0.0 | 1.7 | 0.00 | 0.00 | 0.00 | 67 | 1011.9 |
| 20260906030057 | 81 | 0 | 0.0 | 2.6 | 0.00 | 0.00 | 0.00 | 69 | 1012.0 |
| 20260906024559 | 82 | 96 | 0.0 | 1.7 | 0.00 | 0.00 | 0.00 | 67 | 1011.8 |
| 20260906023103 | 82 | 0 | 0.0 | 1.7 | 0.00 | 0.00 | 0.00 | 66 | 1011.4 |
| 20260906021554 | 84 | 271 | 0.0 | 1.7 | 0.00 | 0.00 | 0.00 | 63 | 1011.6 |
| 20260906020052 | 83 | 58 | 0.9 | 3.5 | 0.00 | 0.00 | 0.00 | 65 | 1011.4 |
| 20260906014548 | 82 | 0 | 0.0 | 0.0 | 0.00 | 0.00 | 0.00 | 64 | 1010.6 |
| 20260906013102 | 83 | 0 | 0.0 | 0.9 | 0.00 | 0.00 | 0.00 | 63 | 1010.9 |
| 20260906011555 | 84 | 26 | 0.0 | 1.7 | 0.00 | 0.00 | 0.00 | 62 | 1011.2 |
| 20260906010056 | 84 | 0 | 0.0 | 1.7 | 0.00 | 0.00 | 0.00 | 62 | 1010.8 |
| 20260906004555 | 85 | 355 | 0.0 | 1.7 | 0.00 | 0.00 | 0.00 | 60 | 1010.9 |
| 20260906003055 | 86 | 53 | 0.0 | 2.6 | 0.00 | 0.00 | 0.00 | 57 | 1011.2 |
| 20260906001552 | 88 | 193 | 0.0 | 9.6 | 0.00 | 0.00 | 0.00 | 57 | 1011.2 |
| 20260906000049 | 91 | 76 | 2.6 | 10.4 | 0.00 | 0.00 | 0.00 | 57 | 1011.1 |
| 20260905234548 | 94 | 0 | 0.0 | 0.9 | 0.00 | 0.00 | 0.00 | 53 | 1010.7 |
| 20260905233100 | 94 | 326 | 0.0 | 1.7 | 0.00 | 0.00 | 0.00 | 51 | 1010.4 |
| 20260905231552 | 95 | 326 | 0.0 | 2.6 | 0.00 | 0.00 | 0.00 | 48 | 1010.3 |
| 20260905230105 | 95 | 271 | 1.7 | 3.5 | 0.00 | 0.00 | 0.00 | 48 | 1010.2 |
| 20260905224615 | 96 | 244 | 0.9 | 2.6 | 0.00 | 0.00 | 0.00 | 46 | 1010.2 |
| 20260905223102 | 98 | 309 | 1.7 | 5.2 | 0.00 | 0.00 | 0.00 | 45 | 1010.5 |
| 20260905221549 | 98 | 346 | 1.7 | 5.2 | 0.00 | 0.00 | 0.00 | 43 | 1010.3 |
| 20260905220059 | 98 | 248 | 3.5 | 5.2 | 0.00 | 0.00 | 0.00 | 43 | 1010.3 |
| 20260905214555 | 98 | 259 | 3.5 | 7.0 | 0.00 | 0.00 | 0.00 | 43 | 1010.3 |
| 20260905213105 | 99 | 274 | 1.7 | 5.2 | 0.00 | 0.00 | 0.00 | 42 | 1010.3 |
| 20260905211557 | 98 | 252 | 3.5 | 7.8 | 0.00 | 0.00 | 0.00 | 44 | 1010.5 |
| 20260905210104 | 98 | 239 | 0.9 | 7.0 | 0.00 | 0.00 | 0.00 | 44 | 1010.6 |
| 20260905204552 | 99 | 287 | 2.6 | 7.8 | 0.00 | 0.00 | 0.00 | 46 | 1010.8 |
| 20260905203102 | 98 | 258 | 2.6 | 7.8 | 0.00 | 0.00 | 0.00 | 45 | 1011.1 |
| 20260905201555 | 98 | 333 | 0.9 | 3.5 | 0.00 | 0.00 | 0.00 | 48 | 1011.2 |
| 20260905200055 | 99 | 281 | 2.6 | 7.0 | 0.00 | 0.00 | 0.00 | 48 | 1011.5 |
| 20260905194552 | 98 | 272 | 0.9 | 6.1 | 0.00 | 0.00 | 0.00 | 46 | 1011.9 |
| 20260905193046 | 98 | 279 | 1.7 | 5.2 | 0.00 | 0.00 | 0.00 | 46 | 1011.8 |
| 20260905191602 | 98 | 307 | 1.7 | 7.0 | 0.00 | 0.00 | 0.00 | 47 | 1012.1 |
| 20260905184600 | 96 | 132 | 1.7 | 7.0 | 0.00 | 0.00 | 0.00 | 50 | 1012.4 |
| 20260905183048 | 96 | 217 | 1.7 | 6.1 | 0.00 | 0.00 | 0.00 | 50 | 1012.9 |
| 20260905181556 | 96 | 258 | 2.6 | 6.1 | 0.00 | 0.00 | 0.00 | 50 | 1013.1 |
| 20260905180103 | 96 | 332 | 1.7 | 5.2 | 0.00 | 0.00 | 0.00 | 54 | 1013.2 |
| 20260905174549 | 94 | 248 | 1.7 | 7.8 | 0.00 | 0.00 | 0.00 | 56 | 1013.5 |
| 20260905173114 | 95 | 317 | 0.9 | 3.5 | 0.00 | 0.00 | 0.00 | 55 | 1013.5 |
| 20260905171554 | 94 | 298 | 0.9 | 3.5 | 0.00 | 0.00 | 0.00 | 56 | 1013.6 |
| 20260905170110 | 93 | 0 | 0.9 | 3.5 | 0.00 | 0.00 | 0.00 | 61 | 1013.8 |
| 20260905164553 | 92 | 51 | 0.9 | 3.5 | 0.00 | 0.00 | 0.00 | 60 | 1013.9 |
| 20260905163103 | 92 | 319 | 0.9 | 2.6 | 0.00 | 0.00 | 0.00 | 60 | 1014.1 |
| 20260905161606 | 90 | 322 | 0.9 | 3.5 | 0.00 | 0.00 | 0.00 | 62 | 1014.4 |
| 20260905160053 | 90 | 302 | 0.9 | 3.5 | 0.00 | 0.00 | 0.00 | 66 | 1014.6 |
| 20260905154610 | 89 | 290 | 0.9 | 2.6 | 0.00 | 0.00 | 0.00 | 68 | 1014.6 |
| 20260905153057 | 87 | 298 | 0.9 | 3.5 | 0.00 | 0.00 | 0.00 | 73 | 1014.8 |
| 20260905151555 | 85 | 0 | 0.0 | 1.7 | 0.00 | 0.00 | 0.00 | 76 | 1014.7 |
| 20260905150052 | 83 | 261 | 0.9 | 1.7 | 0.00 | 0.00 | 0.00 | 79 | 1014.8 |
| 20260905144547 | 82 | 308 | 2.6 | 6.1 | 0.00 | 0.00 | 0.00 | 77 | 1014.9 |
| 20260905143100 | 82 | 246 | 0.0 | 2.6 | 0.00 | 0.00 | 0.00 | 79 | 1014.9 |
| 20260905141554 | 82 | 0 | 0.0 | 1.7 | 0.00 | 0.00 | 0.00 | 81 | 1014.9 |
| 20260905140054 | 80 | 0 | 0.0 | 1.7 | 0.00 | 0.00 | 0.00 | 83 | 1014.9 |
| 20260905134552 | 80 | 109 | 0.0 | 1.7 | 0.00 | 0.00 | 0.00 | 83 | 1014.8 |
| 20260905133102 | 80 | 0 | 0.0 | 0.9 | 0.00 | 0.00 | 0.00 | 84 | 1015.0 |
| 20260905131554 | 79 | 0 | 0.0 | 0.0 | 0.00 | 0.00 | 0.00 | 85 | 1015.1 |
| 20260905130055 | 79 | 0 | 0.0 | 1.7 | 0.00 | 0.00 | 0.00 | 85 | 1014.9 |
| 20260905124555 | 79 | 0 | 0.0 | 0.9 | 0.00 | 0.00 | 0.00 | 86 | 1015.0 |
| 20260905123107 | 78 | 0 | 0.0 | 0.0 | 0.00 | 0.00 | 0.00 | 88 | 1015.0 |
| 20260905121556 | 76 | 0 | 0.0 | 0.0 | 0.00 | 0.00 | 0.00 | 91 | 1014.7 |